sensor_id;sensor_type;location;lat;lon;timestamp;P1;durP1;ratioP1;P2;durP2;ratioP2
65377;SDS011;51982;51.042;13.806;2023-05-10T00:00:38;4.90;;;1.60;;
65377;SDS011;51982;51.042;13.806;2023-05-10T00:03:04;3.45;;;1.52;;
65377;SDS011;51982;51.042;13.806;2023-05-10T00:05:29;2.03;;;1.60;;
65377;SDS011;51982;51.042;13.806;2023-05-10T00:07:55;4.35;;;1.48;;
65377;SDS011;51982;51.042;13.806;2023-05-10T00:10:20;2.13;;;1.40;;
65377;SDS011;51982;51.042;13.806;2023-05-10T00:12:45;3.05;;;1.52;;
65377;SDS011;51982;51.042;13.806;2023-05-10T00:15:10;7.22;;;1.70;;
65377;SDS011;51982;51.042;13.806;2023-05-10T00:17:36;3.45;;;1.50;;
65377;SDS011;51982;51.042;13.806;2023-05-10T00:20:01;2.63;;;1.50;;
65377;SDS011;51982;51.042;13.806;2023-05-10T00:22:26;2.90;;;1.83;;
65377;SDS011;51982;51.042;13.806;2023-05-10T00:24:52;1.95;;;1.40;;
65377;SDS011;51982;51.042;13.806;2023-05-10T00:27:17;3.63;;;1.42;;
65377;SDS011;51982;51.042;13.806;2023-05-10T00:29:42;2.87;;;1.40;;
65377;SDS011;51982;51.042;13.806;2023-05-10T00:32:07;2.45;;;1.45;;
65377;SDS011;51982;51.042;13.806;2023-05-10T00:34:32;3.37;;;1.40;;
65377;SDS011;51982;51.042;13.806;2023-05-10T00:36:58;2.20;;;1.30;;
65377;SDS011;51982;51.042;13.806;2023-05-10T00:39:23;2.00;;;1.30;;
65377;SDS011;51982;51.042;13.806;2023-05-10T00:41:48;2.05;;;1.13;;
65377;SDS011;51982;51.042;13.806;2023-05-10T00:44:13;2.45;;;1.35;;
65377;SDS011;51982;51.042;13.806;2023-05-10T00:46:39;3.30;;;1.60;;
65377;SDS011;51982;51.042;13.806;2023-05-10T00:49:05;2.55;;;1.48;;
65377;SDS011;51982;51.042;13.806;2023-05-10T00:51:31;2.15;;;1.30;;
65377;SDS011;51982;51.042;13.806;2023-05-10T00:53:56;2.28;;;1.20;;
65377;SDS011;51982;51.042;13.806;2023-05-10T00:56:22;1.95;;;1.35;;
65377;SDS011;51982;51.042;13.806;2023-05-10T00:58:48;3.20;;;1.60;;
65377;SDS011;51982;51.042;13.806;2023-05-10T01:01:13;2.92;;;1.48;;
65377;SDS011;51982;51.042;13.806;2023-05-10T01:03:39;2.88;;;1.40;;
65377;SDS011;51982;51.042;13.806;2023-05-10T01:06:04;2.08;;;1.60;;
65377;SDS011;51982;51.042;13.806;2023-05-10T01:08:30;2.53;;;1.50;;
65377;SDS011;51982;51.042;13.806;2023-05-10T01:10:55;2.35;;;1.30;;
65377;SDS011;51982;51.042;13.806;2023-05-10T01:13:37;5.68;;;1.38;;
65377;SDS011;51982;51.042;13.806;2023-05-10T01:16:04;3.33;;;1.25;;
65377;SDS011;51982;51.042;13.806;2023-05-10T01:18:31;4.28;;;1.45;;
65377;SDS011;51982;51.042;13.806;2023-05-10T01:21:13;2.75;;;1.60;;
65377;SDS011;51982;51.042;13.806;2023-05-10T01:23:59;1.95;;;1.25;;
65377;SDS011;51982;51.042;13.806;2023-05-10T01:29:13;1.67;;;1.15;;
65377;SDS011;51982;51.042;13.806;2023-05-10T01:31:54;2.92;;;1.45;;
65377;SDS011;51982;51.042;13.806;2023-05-10T01:34:34;2.00;;;1.40;;
65377;SDS011;51982;51.042;13.806;2023-05-10T01:37:13;3.80;;;1.88;;
65377;SDS011;51982;51.042;13.806;2023-05-10T01:39:55;1.55;;;1.25;;
65377;SDS011;51982;51.042;13.806;2023-05-10T01:42:29;1.77;;;1.30;;
65377;SDS011;51982;51.042;13.806;2023-05-10T01:45:18;1.58;;;1.20;;
65377;SDS011;51982;51.042;13.806;2023-05-10T01:47:51;5.90;;;1.17;;
65377;SDS011;51982;51.042;13.806;2023-05-10T01:50:24;2.70;;;1.58;;
65377;SDS011;51982;51.042;13.806;2023-05-10T01:52:54;3.53;;;1.23;;
65377;SDS011;51982;51.042;13.806;2023-05-10T01:55:23;2.95;;;1.50;;
65377;SDS011;51982;51.042;13.806;2023-05-10T01:57:51;5.50;;;1.55;;
65377;SDS011;51982;51.042;13.806;2023-05-10T02:00:20;2.70;;;1.38;;
65377;SDS011;51982;51.042;13.806;2023-05-10T02:02:47;2.40;;;1.40;;
65377;SDS011;51982;51.042;13.806;2023-05-10T02:05:14;2.72;;;1.60;;
65377;SDS011;51982;51.042;13.806;2023-05-10T02:07:41;4.95;;;1.45;;
65377;SDS011;51982;51.042;13.806;2023-05-10T02:10:07;4.15;;;1.30;;
65377;SDS011;51982;51.042;13.806;2023-05-10T02:12:35;2.78;;;1.45;;
65377;SDS011;51982;51.042;13.806;2023-05-10T02:15:02;3.08;;;1.40;;
65377;SDS011;51982;51.042;13.806;2023-05-10T02:17:29;3.90;;;1.50;;
65377;SDS011;51982;51.042;13.806;2023-05-10T02:19:56;7.15;;;1.60;;
65377;SDS011;51982;51.042;13.806;2023-05-10T02:22:23;4.65;;;1.63;;
65377;SDS011;51982;51.042;13.806;2023-05-10T02:24:50;2.65;;;1.13;;
65377;SDS011;51982;51.042;13.806;2023-05-10T02:27:15;2.90;;;1.55;;
65377;SDS011;51982;51.042;13.806;2023-05-10T02:29:42;2.20;;;1.30;;
65377;SDS011;51982;51.042;13.806;2023-05-10T02:32:08;1.73;;;1.40;;
65377;SDS011;51982;51.042;13.806;2023-05-10T02:34:35;2.78;;;1.52;;
65377;SDS011;51982;51.042;13.806;2023-05-10T02:37:01;5.50;;;1.40;;
65377;SDS011;51982;51.042;13.806;2023-05-10T02:39:27;4.68;;;1.40;;
65377;SDS011;51982;51.042;13.806;2023-05-10T02:41:54;1.70;;;1.30;;
65377;SDS011;51982;51.042;13.806;2023-05-10T02:44:21;2.92;;;1.15;;
65377;SDS011;51982;51.042;13.806;2023-05-10T02:46:47;1.92;;;1.52;;
65377;SDS011;51982;51.042;13.806;2023-05-10T02:49:13;4.05;;;1.40;;
65377;SDS011;51982;51.042;13.806;2023-05-10T02:51:41;2.92;;;1.40;;
65377;SDS011;51982;51.042;13.806;2023-05-10T02:54:18;4.00;;;1.30;;
65377;SDS011;51982;51.042;13.806;2023-05-10T02:56:47;3.97;;;1.50;;
65377;SDS011;51982;51.042;13.806;2023-05-10T02:59:16;2.63;;;1.50;;
65377;SDS011;51982;51.042;13.806;2023-05-10T03:01:41;2.10;;;1.55;;
65377;SDS011;51982;51.042;13.806;2023-05-10T03:04:07;4.03;;;1.52;;
65377;SDS011;51982;51.042;13.806;2023-05-10T03:06:32;1.95;;;1.30;;
65377;SDS011;51982;51.042;13.806;2023-05-10T03:08:57;1.85;;;1.45;;
65377;SDS011;51982;51.042;13.806;2023-05-10T03:14:13;1.33;;;1.17;;
65377;SDS011;51982;51.042;13.806;2023-05-10T03:16:47;1.10;;;0.93;;
65377;SDS011;51982;51.042;13.806;2023-05-10T03:21:54;1.75;;;1.40;;
65377;SDS011;51982;51.042;13.806;2023-05-10T03:24:24;1.55;;;1.13;;
65377;SDS011;51982;51.042;13.806;2023-05-10T03:26:52;3.50;;;1.48;;
65377;SDS011;51982;51.042;13.806;2023-05-10T03:29:25;2.10;;;1.42;;
65377;SDS011;51982;51.042;13.806;2023-05-10T03:31:51;2.90;;;1.48;;
65377;SDS011;51982;51.042;13.806;2023-05-10T03:34:16;1.83;;;1.35;;
65377;SDS011;51982;51.042;13.806;2023-05-10T03:36:42;2.05;;;1.50;;
65377;SDS011;51982;51.042;13.806;2023-05-10T03:39:07;2.63;;;1.40;;
65377;SDS011;51982;51.042;13.806;2023-05-10T03:41:32;4.50;;;1.20;;
65377;SDS011;51982;51.042;13.806;2023-05-10T03:43:58;2.10;;;1.43;;
65377;SDS011;51982;51.042;13.806;2023-05-10T03:46:23;2.60;;;1.47;;
65377;SDS011;51982;51.042;13.806;2023-05-10T03:48:48;3.33;;;1.30;;
65377;SDS011;51982;51.042;13.806;2023-05-10T03:51:13;2.73;;;1.40;;
65377;SDS011;51982;51.042;13.806;2023-05-10T03:53:38;1.87;;;1.40;;
65377;SDS011;51982;51.042;13.806;2023-05-10T03:56:04;2.57;;;1.63;;
65377;SDS011;51982;51.042;13.806;2023-05-10T03:58:29;1.92;;;1.50;;
65377;SDS011;51982;51.042;13.806;2023-05-10T04:00:54;1.85;;;1.50;;
65377;SDS011;51982;51.042;13.806;2023-05-10T04:03:20;1.70;;;1.33;;
65377;SDS011;51982;51.042;13.806;2023-05-10T04:05:45;1.50;;;1.13;;
65377;SDS011;51982;51.042;13.806;2023-05-10T04:08:10;3.53;;;1.37;;
65377;SDS011;51982;51.042;13.806;2023-05-10T04:10:35;1.23;;;1.10;;
65377;SDS011;51982;51.042;13.806;2023-05-10T04:13:01;2.40;;;1.40;;
65377;SDS011;51982;51.042;13.806;2023-05-10T04:15:26;1.70;;;1.23;;
65377;SDS011;51982;51.042;13.806;2023-05-10T04:17:51;2.83;;;1.33;;
65377;SDS011;51982;51.042;13.806;2023-05-10T04:20:16;6.88;;;1.45;;
65377;SDS011;51982;51.042;13.806;2023-05-10T04:22:42;2.78;;;1.40;;
65377;SDS011;51982;51.042;13.806;2023-05-10T04:25:07;3.05;;;1.55;;
65377;SDS011;51982;51.042;13.806;2023-05-10T04:27:33;3.83;;;1.42;;
65377;SDS011;51982;51.042;13.806;2023-05-10T04:29:58;2.25;;;1.30;;
65377;SDS011;51982;51.042;13.806;2023-05-10T04:32:23;2.40;;;1.40;;
65377;SDS011;51982;51.042;13.806;2023-05-10T04:34:49;1.83;;;1.40;;
65377;SDS011;51982;51.042;13.806;2023-05-10T04:37:15;4.28;;;1.35;;
65377;SDS011;51982;51.042;13.806;2023-05-10T04:39:41;3.35;;;1.63;;
65377;SDS011;51982;51.042;13.806;2023-05-10T04:42:06;7.68;;;1.23;;
65377;SDS011;51982;51.042;13.806;2023-05-10T04:44:32;2.42;;;1.35;;
65377;SDS011;51982;51.042;13.806;2023-05-10T04:46:57;3.38;;;1.60;;
65377;SDS011;51982;51.042;13.806;2023-05-10T04:49:23;2.33;;;1.40;;
65377;SDS011;51982;51.042;13.806;2023-05-10T04:51:48;3.17;;;1.47;;
65377;SDS011;51982;51.042;13.806;2023-05-10T04:54:14;3.10;;;1.30;;
65377;SDS011;51982;51.042;13.806;2023-05-10T04:56:39;1.90;;;1.30;;
65377;SDS011;51982;51.042;13.806;2023-05-10T04:59:05;4.28;;;1.50;;
65377;SDS011;51982;51.042;13.806;2023-05-10T05:01:31;3.35;;;1.40;;
65377;SDS011;51982;51.042;13.806;2023-05-10T05:03:56;2.65;;;1.40;;
65377;SDS011;51982;51.042;13.806;2023-05-10T05:06:21;6.55;;;1.30;;
65377;SDS011;51982;51.042;13.806;2023-05-10T05:08:46;4.03;;;1.50;;
65377;SDS011;51982;51.042;13.806;2023-05-10T05:11:14;4.55;;;1.33;;
65377;SDS011;51982;51.042;13.806;2023-05-10T05:13:39;2.27;;;1.30;;
65377;SDS011;51982;51.042;13.806;2023-05-10T05:16:04;3.63;;;1.33;;
65377;SDS011;51982;51.042;13.806;2023-05-10T05:18:30;2.38;;;1.33;;
65377;SDS011;51982;51.042;13.806;2023-05-10T05:20:55;2.00;;;1.03;;
65377;SDS011;51982;51.042;13.806;2023-05-10T05:23:20;4.68;;;1.55;;
65377;SDS011;51982;51.042;13.806;2023-05-10T05:25:49;2.17;;;1.25;;
65377;SDS011;51982;51.042;13.806;2023-05-10T05:28:14;2.63;;;1.87;;
65377;SDS011;51982;51.042;13.806;2023-05-10T05:30:39;9.07;;;1.60;;
65377;SDS011;51982;51.042;13.806;2023-05-10T05:33:05;2.80;;;1.40;;
65377;SDS011;51982;51.042;13.806;2023-05-10T05:35:30;2.70;;;1.40;;
65377;SDS011;51982;51.042;13.806;2023-05-10T05:37:55;2.37;;;1.50;;
65377;SDS011;51982;51.042;13.806;2023-05-10T05:40:21;2.25;;;1.60;;
65377;SDS011;51982;51.042;13.806;2023-05-10T05:42:46;2.30;;;1.65;;
65377;SDS011;51982;51.042;13.806;2023-05-10T05:45:11;4.75;;;1.52;;
65377;SDS011;51982;51.042;13.806;2023-05-10T05:47:38;1.83;;;1.23;;
65377;SDS011;51982;51.042;13.806;2023-05-10T05:50:04;3.05;;;1.30;;
65377;SDS011;51982;51.042;13.806;2023-05-10T05:52:30;3.40;;;1.58;;
65377;SDS011;51982;51.042;13.806;2023-05-10T05:54:55;3.88;;;1.35;;
65377;SDS011;51982;51.042;13.806;2023-05-10T05:57:21;4.07;;;1.60;;
65377;SDS011;51982;51.042;13.806;2023-05-10T05:59:46;1.55;;;1.23;;
65377;SDS011;51982;51.042;13.806;2023-05-10T06:02:12;2.83;;;1.25;;
65377;SDS011;51982;51.042;13.806;2023-05-10T06:04:37;2.42;;;1.20;;
65377;SDS011;51982;51.042;13.806;2023-05-10T06:07:02;3.00;;;1.67;;
65377;SDS011;51982;51.042;13.806;2023-05-10T06:09:28;3.00;;;1.50;;
65377;SDS011;51982;51.042;13.806;2023-05-10T06:11:53;4.63;;;1.50;;
65377;SDS011;51982;51.042;13.806;2023-05-10T06:14:20;1.93;;;1.40;;
65377;SDS011;51982;51.042;13.806;2023-05-10T06:16:45;1.80;;;1.45;;
65377;SDS011;51982;51.042;13.806;2023-05-10T06:19:10;1.90;;;1.37;;
65377;SDS011;51982;51.042;13.806;2023-05-10T06:21:36;2.17;;;1.30;;
65377;SDS011;51982;51.042;13.806;2023-05-10T06:24:01;4.80;;;1.40;;
65377;SDS011;51982;51.042;13.806;2023-05-10T06:26:27;4.07;;;1.70;;
65377;SDS011;51982;51.042;13.806;2023-05-10T06:28:52;5.20;;;1.60;;
65377;SDS011;51982;51.042;13.806;2023-05-10T06:31:17;2.30;;;1.23;;
65377;SDS011;51982;51.042;13.806;2023-05-10T06:33:43;1.92;;;1.42;;
65377;SDS011;51982;51.042;13.806;2023-05-10T06:36:08;4.23;;;1.40;;
65377;SDS011;51982;51.042;13.806;2023-05-10T06:38:33;4.07;;;1.55;;
65377;SDS011;51982;51.042;13.806;2023-05-10T06:40:59;3.75;;;1.60;;
65377;SDS011;51982;51.042;13.806;2023-05-10T06:43:24;2.88;;;1.63;;
65377;SDS011;51982;51.042;13.806;2023-05-10T06:45:51;5.65;;;1.50;;
65377;SDS011;51982;51.042;13.806;2023-05-10T06:48:16;5.70;;;1.50;;
65377;SDS011;51982;51.042;13.806;2023-05-10T06:50:42;2.10;;;1.40;;
65377;SDS011;51982;51.042;13.806;2023-05-10T06:53:07;6.57;;;1.70;;
65377;SDS011;51982;51.042;13.806;2023-05-10T06:55:32;3.07;;;1.57;;
65377;SDS011;51982;51.042;13.806;2023-05-10T06:57:57;3.78;;;1.40;;
65377;SDS011;51982;51.042;13.806;2023-05-10T07:00:22;2.75;;;1.48;;
65377;SDS011;51982;51.042;13.806;2023-05-10T07:02:48;3.40;;;1.40;;
65377;SDS011;51982;51.042;13.806;2023-05-10T07:05:13;8.02;;;2.05;;
65377;SDS011;51982;51.042;13.806;2023-05-10T07:07:39;2.58;;;1.30;;
65377;SDS011;51982;51.042;13.806;2023-05-10T07:10:04;3.80;;;1.60;;
65377;SDS011;51982;51.042;13.806;2023-05-10T07:12:30;4.43;;;1.75;;
65377;SDS011;51982;51.042;13.806;2023-05-10T07:14:55;5.60;;;1.90;;
65377;SDS011;51982;51.042;13.806;2023-05-10T07:17:20;4.78;;;1.63;;
65377;SDS011;51982;51.042;13.806;2023-05-10T07:19:46;2.60;;;1.50;;
65377;SDS011;51982;51.042;13.806;2023-05-10T07:22:11;3.83;;;1.90;;
65377;SDS011;51982;51.042;13.806;2023-05-10T07:24:36;3.10;;;1.60;;
65377;SDS011;51982;51.042;13.806;2023-05-10T07:27:01;1.85;;;1.35;;
65377;SDS011;51982;51.042;13.806;2023-05-10T07:29:27;3.60;;;1.58;;
65377;SDS011;51982;51.042;13.806;2023-05-10T07:31:53;3.65;;;1.50;;
65377;SDS011;51982;51.042;13.806;2023-05-10T07:34:18;4.05;;;1.80;;
65377;SDS011;51982;51.042;13.806;2023-05-10T07:36:43;2.50;;;1.43;;
65377;SDS011;51982;51.042;13.806;2023-05-10T07:39:09;3.43;;;1.80;;
65377;SDS011;51982;51.042;13.806;2023-05-10T07:41:34;4.67;;;1.67;;
65377;SDS011;51982;51.042;13.806;2023-05-10T07:43:59;7.00;;;1.70;;
65377;SDS011;51982;51.042;13.806;2023-05-10T07:46:25;3.40;;;1.60;;
65377;SDS011;51982;51.042;13.806;2023-05-10T07:48:50;3.05;;;1.77;;
65377;SDS011;51982;51.042;13.806;2023-05-10T07:51:15;2.35;;;1.60;;
65377;SDS011;51982;51.042;13.806;2023-05-10T07:53:40;3.83;;;1.80;;
65377;SDS011;51982;51.042;13.806;2023-05-10T07:56:25;2.85;;;1.80;;
65377;SDS011;51982;51.042;13.806;2023-05-10T07:58:54;6.75;;;2.00;;
65377;SDS011;51982;51.042;13.806;2023-05-10T08:01:20;2.83;;;1.88;;
65377;SDS011;51982;51.042;13.806;2023-05-10T08:03:45;2.90;;;1.87;;
65377;SDS011;51982;51.042;13.806;2023-05-10T08:06:10;5.05;;;2.00;;
65377;SDS011;51982;51.042;13.806;2023-05-10T08:08:36;5.85;;;1.60;;
65377;SDS011;51982;51.042;13.806;2023-05-10T08:11:01;6.80;;;2.15;;
65377;SDS011;51982;51.042;13.806;2023-05-10T08:13:26;3.70;;;1.80;;
65377;SDS011;51982;51.042;13.806;2023-05-10T08:15:52;4.43;;;1.83;;
65377;SDS011;51982;51.042;13.806;2023-05-10T08:18:18;6.20;;;1.88;;
65377;SDS011;51982;51.042;13.806;2023-05-10T08:20:43;3.28;;;1.92;;
65377;SDS011;51982;51.042;13.806;2023-05-10T08:23:09;2.78;;;1.80;;
65377;SDS011;51982;51.042;13.806;2023-05-10T08:25:34;8.13;;;1.55;;
65377;SDS011;51982;51.042;13.806;2023-05-10T08:27:59;3.95;;;1.92;;
65377;SDS011;51982;51.042;13.806;2023-05-10T08:30:24;3.15;;;1.90;;
65377;SDS011;51982;51.042;13.806;2023-05-10T08:32:50;5.97;;;1.70;;
65377;SDS011;51982;51.042;13.806;2023-05-10T08:35:15;4.25;;;1.65;;
65377;SDS011;51982;51.042;13.806;2023-05-10T08:37:41;3.45;;;2.05;;
65377;SDS011;51982;51.042;13.806;2023-05-10T08:40:06;5.15;;;2.42;;
65377;SDS011;51982;51.042;13.806;2023-05-10T08:42:34;3.33;;;2.10;;
65377;SDS011;51982;51.042;13.806;2023-05-10T08:45:02;3.95;;;2.13;;
65377;SDS011;51982;51.042;13.806;2023-05-10T08:47:29;5.75;;;1.85;;
65377;SDS011;51982;51.042;13.806;2023-05-10T08:49:54;3.25;;;1.60;;
65377;SDS011;51982;51.042;13.806;2023-05-10T08:52:20;4.68;;;2.00;;
65377;SDS011;51982;51.042;13.806;2023-05-10T08:54:48;3.75;;;1.95;;
65377;SDS011;51982;51.042;13.806;2023-05-10T08:57:14;6.43;;;1.90;;
65377;SDS011;51982;51.042;13.806;2023-05-10T08:59:39;2.50;;;1.80;;
65377;SDS011;51982;51.042;13.806;2023-05-10T09:02:05;11.90;;;2.30;;
65377;SDS011;51982;51.042;13.806;2023-05-10T09:04:31;3.15;;;1.90;;
65377;SDS011;51982;51.042;13.806;2023-05-10T09:06:56;2.80;;;1.90;;
65377;SDS011;51982;51.042;13.806;2023-05-10T09:09:22;3.00;;;1.92;;
65377;SDS011;51982;51.042;13.806;2023-05-10T09:11:49;3.88;;;2.03;;
65377;SDS011;51982;51.042;13.806;2023-05-10T09:14:15;3.28;;;2.13;;
65377;SDS011;51982;51.042;13.806;2023-05-10T09:16:42;4.70;;;2.15;;
65377;SDS011;51982;51.042;13.806;2023-05-10T09:19:07;3.78;;;1.92;;
65377;SDS011;51982;51.042;13.806;2023-05-10T09:21:34;8.48;;;2.25;;
65377;SDS011;51982;51.042;13.806;2023-05-10T09:24:05;2.72;;;1.80;;
65377;SDS011;51982;51.042;13.806;2023-05-10T09:26:31;6.47;;;2.25;;
65377;SDS011;51982;51.042;13.806;2023-05-10T09:28:58;3.38;;;2.00;;
65377;SDS011;51982;51.042;13.806;2023-05-10T09:31:24;4.88;;;2.13;;
65377;SDS011;51982;51.042;13.806;2023-05-10T09:36:34;5.00;;;2.37;;
65377;SDS011;51982;51.042;13.806;2023-05-10T09:38:59;4.07;;;2.08;;
65377;SDS011;51982;51.042;13.806;2023-05-10T09:41:25;3.07;;;2.17;;
65377;SDS011;51982;51.042;13.806;2023-05-10T09:43:50;2.80;;;2.10;;
65377;SDS011;51982;51.042;13.806;2023-05-10T09:46:20;2.67;;;2.03;;
65377;SDS011;51982;51.042;13.806;2023-05-10T09:48:47;3.45;;;2.05;;
65377;SDS011;51982;51.042;13.806;2023-05-10T09:51:22;4.10;;;2.08;;
65377;SDS011;51982;51.042;13.806;2023-05-10T09:53:49;6.40;;;2.20;;
65377;SDS011;51982;51.042;13.806;2023-05-10T09:56:34;3.53;;;1.92;;
65377;SDS011;51982;51.042;13.806;2023-05-10T09:59:04;4.20;;;2.15;;
65377;SDS011;51982;51.042;13.806;2023-05-10T10:01:30;5.90;;;2.00;;
65377;SDS011;51982;51.042;13.806;2023-05-10T10:03:55;4.30;;;2.10;;
65377;SDS011;51982;51.042;13.806;2023-05-10T10:06:22;4.88;;;2.20;;
65377;SDS011;51982;51.042;13.806;2023-05-10T10:08:48;9.02;;;2.40;;
65377;SDS011;51982;51.042;13.806;2023-05-10T10:11:13;4.60;;;2.10;;
65377;SDS011;51982;51.042;13.806;2023-05-10T10:13:39;3.75;;;2.13;;
65377;SDS011;51982;51.042;13.806;2023-05-10T10:16:05;8.73;;;2.35;;
65377;SDS011;51982;51.042;13.806;2023-05-10T10:18:30;3.40;;;1.77;;
65377;SDS011;51982;51.042;13.806;2023-05-10T10:20:55;4.53;;;2.20;;
65377;SDS011;51982;51.042;13.806;2023-05-10T10:23:21;4.07;;;1.98;;
65377;SDS011;51982;51.042;13.806;2023-05-10T10:25:46;5.30;;;2.30;;
65377;SDS011;51982;51.042;13.806;2023-05-10T10:34:06;6.45;;;2.30;;
65377;SDS011;51982;51.042;13.806;2023-05-10T10:36:39;3.95;;;2.50;;
65377;SDS011;51982;51.042;13.806;2023-05-10T10:39:08;7.65;;;2.40;;
65377;SDS011;51982;51.042;13.806;2023-05-10T10:41:35;5.05;;;2.30;;
65377;SDS011;51982;51.042;13.806;2023-05-10T10:54:51;4.30;;;2.25;;
65377;SDS011;51982;51.042;13.806;2023-05-10T10:57:18;4.15;;;2.30;;
65377;SDS011;51982;51.042;13.806;2023-05-10T10:59:46;9.35;;;2.25;;
65377;SDS011;51982;51.042;13.806;2023-05-10T11:08:02;3.53;;;2.28;;
65377;SDS011;51982;51.042;13.806;2023-05-10T11:10:32;5.32;;;2.30;;
65377;SDS011;51982;51.042;13.806;2023-05-10T11:13:05;4.45;;;2.30;;
65377;SDS011;51982;51.042;13.806;2023-05-10T11:15:38;8.85;;;2.20;;
65377;SDS011;51982;51.042;13.806;2023-05-10T11:18:24;5.40;;;2.30;;
65377;SDS011;51982;51.042;13.806;2023-05-10T11:20:51;4.95;;;2.35;;
65377;SDS011;51982;51.042;13.806;2023-05-10T11:23:17;5.70;;;2.50;;
65377;SDS011;51982;51.042;13.806;2023-05-10T11:25:44;5.32;;;2.42;;
65377;SDS011;51982;51.042;13.806;2023-05-10T11:28:11;4.05;;;2.10;;
65377;SDS011;51982;51.042;13.806;2023-05-10T11:30:40;2.95;;;2.30;;
65377;SDS011;51982;51.042;13.806;2023-05-10T11:33:06;3.72;;;2.35;;
65377;SDS011;51982;51.042;13.806;2023-05-10T11:35:38;4.13;;;2.30;;
65377;SDS011;51982;51.042;13.806;2023-05-10T11:38:06;3.27;;;2.33;;
65377;SDS011;51982;51.042;13.806;2023-05-10T11:40:32;8.07;;;2.33;;
65377;SDS011;51982;51.042;13.806;2023-05-10T11:42:57;4.22;;;2.33;;
65377;SDS011;51982;51.042;13.806;2023-05-10T11:45:26;4.95;;;2.20;;
65377;SDS011;51982;51.042;13.806;2023-05-10T11:47:52;5.95;;;2.10;;
65377;SDS011;51982;51.042;13.806;2023-05-10T11:50:17;10.15;;;2.72;;
65377;SDS011;51982;51.042;13.806;2023-05-10T11:52:43;9.82;;;2.33;;
65377;SDS011;51982;51.042;13.806;2023-05-10T11:55:08;3.92;;;2.22;;
65377;SDS011;51982;51.042;13.806;2023-05-10T11:57:34;4.43;;;2.40;;
65377;SDS011;51982;51.042;13.806;2023-05-10T12:00:03;5.18;;;2.22;;
65377;SDS011;51982;51.042;13.806;2023-05-10T12:02:29;8.10;;;2.35;;
65377;SDS011;51982;51.042;13.806;2023-05-10T12:04:54;3.78;;;2.30;;
65377;SDS011;51982;51.042;13.806;2023-05-10T12:07:20;6.32;;;2.40;;
65377;SDS011;51982;51.042;13.806;2023-05-10T12:12:44;6.63;;;2.20;;
65377;SDS011;51982;51.042;13.806;2023-05-10T12:15:21;2.92;;;1.98;;
65377;SDS011;51982;51.042;13.806;2023-05-10T12:17:48;5.72;;;2.38;;
65377;SDS011;51982;51.042;13.806;2023-05-10T12:20:17;3.33;;;2.38;;
65377;SDS011;51982;51.042;13.806;2023-05-10T12:22:48;9.38;;;2.42;;
65377;SDS011;51982;51.042;13.806;2023-05-10T12:25:18;4.40;;;2.42;;
65377;SDS011;51982;51.042;13.806;2023-05-10T12:27:51;8.02;;;2.35;;
65377;SDS011;51982;51.042;13.806;2023-05-10T12:32:46;4.75;;;2.40;;
65377;SDS011;51982;51.042;13.806;2023-05-10T12:35:12;6.10;;;2.47;;
65377;SDS011;51982;51.042;13.806;2023-05-10T12:37:37;4.83;;;2.17;;
65377;SDS011;51982;51.042;13.806;2023-05-10T12:40:07;4.20;;;2.28;;
65377;SDS011;51982;51.042;13.806;2023-05-10T12:42:34;6.97;;;2.30;;
65377;SDS011;51982;51.042;13.806;2023-05-10T12:45:00;6.72;;;2.80;;
65377;SDS011;51982;51.042;13.806;2023-05-10T12:47:26;5.28;;;2.50;;
65377;SDS011;51982;51.042;13.806;2023-05-10T12:49:51;4.30;;;2.80;;
65377;SDS011;51982;51.042;13.806;2023-05-10T12:52:16;3.83;;;2.50;;
65377;SDS011;51982;51.042;13.806;2023-05-10T12:54:42;3.03;;;2.05;;
65377;SDS011;51982;51.042;13.806;2023-05-10T12:57:07;5.28;;;2.53;;
65377;SDS011;51982;51.042;13.806;2023-05-10T12:59:32;6.80;;;2.20;;
65377;SDS011;51982;51.042;13.806;2023-05-10T13:01:57;4.20;;;2.20;;
65377;SDS011;51982;51.042;13.806;2023-05-10T13:04:23;3.67;;;2.47;;
65377;SDS011;51982;51.042;13.806;2023-05-10T13:06:48;4.45;;;2.42;;
65377;SDS011;51982;51.042;13.806;2023-05-10T13:09:13;4.38;;;2.38;;
65377;SDS011;51982;51.042;13.806;2023-05-10T13:11:39;8.00;;;2.17;;
65377;SDS011;51982;51.042;13.806;2023-05-10T13:14:04;4.78;;;2.10;;
65377;SDS011;51982;51.042;13.806;2023-05-10T13:16:29;5.18;;;2.00;;
65377;SDS011;51982;51.042;13.806;2023-05-10T13:18:55;3.97;;;1.90;;
65377;SDS011;51982;51.042;13.806;2023-05-10T13:21:20;4.37;;;2.50;;
65377;SDS011;51982;51.042;13.806;2023-05-10T13:23:46;4.80;;;2.20;;
65377;SDS011;51982;51.042;13.806;2023-05-10T13:26:11;6.40;;;2.38;;
65377;SDS011;51982;51.042;13.806;2023-05-10T13:28:37;3.05;;;1.95;;
65377;SDS011;51982;51.042;13.806;2023-05-10T13:31:03;5.43;;;2.38;;
65377;SDS011;51982;51.042;13.806;2023-05-10T13:33:29;4.95;;;2.45;;
65377;SDS011;51982;51.042;13.806;2023-05-10T13:35:55;3.50;;;2.30;;
65377;SDS011;51982;51.042;13.806;2023-05-10T13:38:20;4.37;;;2.00;;
65377;SDS011;51982;51.042;13.806;2023-05-10T13:40:45;3.37;;;2.03;;
65377;SDS011;51982;51.042;13.806;2023-05-10T13:43:10;8.20;;;2.10;;
65377;SDS011;51982;51.042;13.806;2023-05-10T13:45:36;5.38;;;2.50;;
65377;SDS011;51982;51.042;13.806;2023-05-10T13:48:01;3.37;;;2.00;;
65377;SDS011;51982;51.042;13.806;2023-05-10T13:50:26;3.10;;;2.07;;
65377;SDS011;51982;51.042;13.806;2023-05-10T13:52:51;2.33;;;1.83;;
65377;SDS011;51982;51.042;13.806;2023-05-10T13:55:17;6.27;;;2.13;;
65377;SDS011;51982;51.042;13.806;2023-05-10T13:57:42;3.23;;;2.20;;
65377;SDS011;51982;51.042;13.806;2023-05-10T14:00:08;4.85;;;2.17;;
65377;SDS011;51982;51.042;13.806;2023-05-10T14:02:34;2.60;;;2.10;;
65377;SDS011;51982;51.042;13.806;2023-05-10T14:04:59;2.90;;;2.03;;
65377;SDS011;51982;51.042;13.806;2023-05-10T14:07:25;3.03;;;1.98;;
65377;SDS011;51982;51.042;13.806;2023-05-10T14:09:50;5.40;;;2.28;;
65377;SDS011;51982;51.042;13.806;2023-05-10T14:12:15;5.80;;;2.07;;
65377;SDS011;51982;51.042;13.806;2023-05-10T14:14:41;8.48;;;2.50;;
65377;SDS011;51982;51.042;13.806;2023-05-10T14:17:07;3.70;;;2.00;;
65377;SDS011;51982;51.042;13.806;2023-05-10T14:19:32;6.13;;;2.60;;
65377;SDS011;51982;51.042;13.806;2023-05-10T14:21:58;9.05;;;2.30;;
65377;SDS011;51982;51.042;13.806;2023-05-10T14:24:24;5.25;;;2.15;;
65377;SDS011;51982;51.042;13.806;2023-05-10T14:26:49;6.10;;;2.10;;
65377;SDS011;51982;51.042;13.806;2023-05-10T14:29:18;4.05;;;2.17;;
65377;SDS011;51982;51.042;13.806;2023-05-10T14:31:43;4.73;;;2.10;;
65377;SDS011;51982;51.042;13.806;2023-05-10T14:34:08;5.03;;;2.00;;
65377;SDS011;51982;51.042;13.806;2023-05-10T14:36:34;5.53;;;2.03;;
65377;SDS011;51982;51.042;13.806;2023-05-10T14:38:59;6.03;;;2.43;;
65377;SDS011;51982;51.042;13.806;2023-05-10T14:41:24;3.67;;;2.00;;
65377;SDS011;51982;51.042;13.806;2023-05-10T14:43:49;4.33;;;2.00;;
65377;SDS011;51982;51.042;13.806;2023-05-10T14:46:15;2.80;;;2.10;;
65377;SDS011;51982;51.042;13.806;2023-05-10T14:48:40;3.00;;;2.05;;
65377;SDS011;51982;51.042;13.806;2023-05-10T14:51:06;4.17;;;2.10;;
65377;SDS011;51982;51.042;13.806;2023-05-10T14:53:31;4.63;;;2.20;;
65377;SDS011;51982;51.042;13.806;2023-05-10T14:55:57;4.53;;;2.10;;
65377;SDS011;51982;51.042;13.806;2023-05-10T14:58:22;3.80;;;2.20;;
65377;SDS011;51982;51.042;13.806;2023-05-10T15:00:48;4.72;;;2.10;;
65377;SDS011;51982;51.042;13.806;2023-05-10T15:03:13;5.60;;;2.03;;
65377;SDS011;51982;51.042;13.806;2023-05-10T15:05:38;8.35;;;2.15;;
65377;SDS011;51982;51.042;13.806;2023-05-10T15:08:04;2.80;;;1.95;;